sensor_id;sensor_type;location;lat;lon;timestamp;P1;durP1;ratioP1;P2;durP2;ratioP2
39698;SDS011;25372;50.582;12.250;2023-06-10T00:03:38;8.25;;;4.43;;
39698;SDS011;25372;50.582;12.250;2023-06-10T00:14:02;5.68;;;4.43;;
39698;SDS011;25372;50.582;12.250;2023-06-10T00:24:23;8.48;;;4.90;;
39698;SDS011;25372;50.582;12.250;2023-06-10T00:34:45;8.63;;;5.15;;
39698;SDS011;25372;50.582;12.250;2023-06-10T00:45:06;7.85;;;4.97;;
39698;SDS011;25372;50.582;12.250;2023-06-10T00:55:30;6.07;;;3.95;;
39698;SDS011;25372;50.582;12.250;2023-06-10T01:05:53;7.22;;;5.03;;
39698;SDS011;25372;50.582;12.250;2023-06-10T01:16:24;10.77;;;5.53;;
39698;SDS011;25372;50.582;12.250;2023-06-10T01:26:46;6.82;;;4.57;;
39698;SDS011;25372;50.582;12.250;2023-06-10T01:37:13;10.25;;;5.97;;
39698;SDS011;25372;50.582;12.250;2023-06-10T01:47:39;10.02;;;5.60;;
39698;SDS011;25372;50.582;12.250;2023-06-10T01:58:00;8.20;;;4.47;;
39698;SDS011;25372;50.582;12.250;2023-06-10T02:08:23;7.18;;;4.60;;
39698;SDS011;25372;50.582;12.250;2023-06-10T02:18:44;7.15;;;5.32;;
39698;SDS011;25372;50.582;12.250;2023-06-10T02:29:07;6.15;;;4.35;;
39698;SDS011;25372;50.582;12.250;2023-06-10T02:39:28;9.02;;;4.97;;
39698;SDS011;25372;50.582;12.250;2023-06-10T02:49:51;8.93;;;5.63;;
39698;SDS011;25372;50.582;12.250;2023-06-10T03:00:12;9.15;;;5.55;;
39698;SDS011;25372;50.582;12.250;2023-06-10T03:10:38;10.00;;;4.87;;
39698;SDS011;25372;50.582;12.250;2023-06-10T03:21:00;8.57;;;4.97;;
39698;SDS011;25372;50.582;12.250;2023-06-10T03:31:23;5.93;;;4.50;;
39698;SDS011;25372;50.582;12.250;2023-06-10T03:41:46;10.60;;;5.68;;
39698;SDS011;25372;50.582;12.250;2023-06-10T03:52:09;9.50;;;5.75;;
39698;SDS011;25372;50.582;12.250;2023-06-10T04:02:29;11.63;;;6.32;;
39698;SDS011;25372;50.582;12.250;2023-06-10T04:12:53;10.68;;;5.90;;
39698;SDS011;25372;50.582;12.250;2023-06-10T04:23:16;8.98;;;5.80;;
39698;SDS011;25372;50.582;12.250;2023-06-10T04:33:41;8.73;;;5.60;;
39698;SDS011;25372;50.582;12.250;2023-06-10T04:44:02;7.68;;;5.35;;
39698;SDS011;25372;50.582;12.250;2023-06-10T04:54:24;7.28;;;4.97;;
39698;SDS011;25372;50.582;12.250;2023-06-10T05:04:47;7.57;;;4.13;;
39698;SDS011;25372;50.582;12.250;2023-06-10T05:15:09;4.70;;;3.63;;
39698;SDS011;25372;50.582;12.250;2023-06-10T05:25:31;6.65;;;4.32;;
39698;SDS011;25372;50.582;12.250;2023-06-10T05:35:53;5.85;;;3.33;;
39698;SDS011;25372;50.582;12.250;2023-06-10T05:46:14;5.88;;;4.18;;
39698;SDS011;25372;50.582;12.250;2023-06-10T05:56:36;4.70;;;3.70;;
39698;SDS011;25372;50.582;12.250;2023-06-10T06:06:57;5.63;;;4.00;;
39698;SDS011;25372;50.582;12.250;2023-06-10T06:17:19;5.95;;;3.63;;
39698;SDS011;25372;50.582;12.250;2023-06-10T06:27:41;6.13;;;4.30;;
39698;SDS011;25372;50.582;12.250;2023-06-10T06:38:03;7.25;;;3.80;;
39698;SDS011;25372;50.582;12.250;2023-06-10T06:48:25;4.93;;;3.50;;
39698;SDS011;25372;50.582;12.250;2023-06-10T06:58:47;5.97;;;3.65;;
39698;SDS011;25372;50.582;12.250;2023-06-10T07:09:08;7.35;;;3.38;;
39698;SDS011;25372;50.582;12.250;2023-06-10T07:19:30;5.43;;;3.13;;
39698;SDS011;25372;50.582;12.250;2023-06-10T07:29:51;7.50;;;3.28;;
39698;SDS011;25372;50.582;12.250;2023-06-10T07:40:13;7.00;;;3.38;;
39698;SDS011;25372;50.582;12.250;2023-06-10T07:50:34;4.07;;;2.92;;
39698;SDS011;25372;50.582;12.250;2023-06-10T08:00:56;4.50;;;2.97;;
39698;SDS011;25372;50.582;12.250;2023-06-10T08:11:17;5.10;;;3.83;;
39698;SDS011;25372;50.582;12.250;2023-06-10T08:21:39;6.20;;;3.70;;
39698;SDS011;25372;50.582;12.250;2023-06-10T08:32:00;4.68;;;3.17;;
39698;SDS011;25372;50.582;12.250;2023-06-10T08:42:23;3.85;;;2.80;;
39698;SDS011;25372;50.582;12.250;2023-06-10T08:52:50;3.58;;;2.95;;
39698;SDS011;25372;50.582;12.250;2023-06-10T09:03:18;7.07;;;6.13;;
39698;SDS011;25372;50.582;12.250;2023-06-10T09:13:39;4.65;;;3.90;;
39698;SDS011;25372;50.582;12.250;2023-06-10T09:24:02;4.50;;;3.75;;
39698;SDS011;25372;50.582;12.250;2023-06-10T09:34:24;4.75;;;3.40;;
39698;SDS011;25372;50.582;12.250;2023-06-10T09:44:51;4.60;;;3.03;;
39698;SDS011;25372;50.582;12.250;2023-06-10T09:55:12;4.85;;;2.88;;
39698;SDS011;25372;50.582;12.250;2023-06-10T10:05:34;4.40;;;3.30;;
39698;SDS011;25372;50.582;12.250;2023-06-10T10:15:55;4.00;;;2.85;;
39698;SDS011;25372;50.582;12.250;2023-06-10T10:26:22;3.75;;;2.70;;
39698;SDS011;25372;50.582;12.250;2023-06-10T10:36:46;4.35;;;3.20;;
39698;SDS011;25372;50.582;12.250;2023-06-10T10:47:08;5.28;;;3.28;;
39698;SDS011;25372;50.582;12.250;2023-06-10T10:57:31;3.97;;;2.77;;
39698;SDS011;25372;50.582;12.250;2023-06-10T11:07:54;5.38;;;2.92;;
39698;SDS011;25372;50.582;12.250;2023-06-10T11:18:22;4.07;;;2.33;;
39698;SDS011;25372;50.582;12.250;2023-06-10T11:39:27;8.02;;;2.75;;
39698;SDS011;25372;50.582;12.250;2023-06-10T11:49:56;3.92;;;3.03;;
39698;SDS011;25372;50.582;12.250;2023-06-10T12:00:18;4.05;;;2.72;;
39698;SDS011;25372;50.582;12.250;2023-06-10T12:10:41;4.03;;;2.95;;
39698;SDS011;25372;50.582;12.250;2023-06-10T12:21:02;3.50;;;2.65;;
39698;SDS011;25372;50.582;12.250;2023-06-10T12:31:25;3.67;;;2.75;;
39698;SDS011;25372;50.582;12.250;2023-06-10T12:41:46;3.38;;;3.05;;
39698;SDS011;25372;50.582;12.250;2023-06-10T12:52:10;5.05;;;2.70;;
39698;SDS011;25372;50.582;12.250;2023-06-10T13:02:31;3.45;;;2.97;;
39698;SDS011;25372;50.582;12.250;2023-06-10T13:12:53;4.55;;;3.05;;
39698;SDS011;25372;50.582;12.250;2023-06-10T13:23:14;5.70;;;2.70;;
39698;SDS011;25372;50.582;12.250;2023-06-10T13:33:37;2.85;;;2.13;;
39698;SDS011;25372;50.582;12.250;2023-06-10T13:43:57;2.72;;;2.13;;
39698;SDS011;25372;50.582;12.250;2023-06-10T13:54:19;5.72;;;2.05;;
39698;SDS011;25372;50.582;12.250;2023-06-10T14:04:40;4.22;;;2.50;;
39698;SDS011;25372;50.582;12.250;2023-06-10T14:15:02;3.67;;;2.00;;
39698;SDS011;25372;50.582;12.250;2023-06-10T14:25:24;2.50;;;1.95;;
39698;SDS011;25372;50.582;12.250;2023-06-10T14:35:46;2.70;;;2.08;;
39698;SDS011;25372;50.582;12.250;2023-06-10T14:46:07;4.65;;;2.58;;
39698;SDS011;25372;50.582;12.250;2023-06-10T14:56:29;2.13;;;1.88;;
39698;SDS011;25372;50.582;12.250;2023-06-10T15:06:50;2.35;;;1.90;;
39698;SDS011;25372;50.582;12.250;2023-06-10T15:17:12;4.57;;;2.83;;
39698;SDS011;25372;50.582;12.250;2023-06-10T15:27:33;4.45;;;2.60;;
39698;SDS011;25372;50.582;12.250;2023-06-10T15:37:55;7.13;;;2.95;;
39698;SDS011;25372;50.582;12.250;2023-06-10T15:48:16;4.28;;;2.72;;
39698;SDS011;25372;50.582;12.250;2023-06-10T15:58:38;4.40;;;2.83;;
39698;SDS011;25372;50.582;12.250;2023-06-10T16:08:59;5.95;;;3.00;;
39698;SDS011;25372;50.582;12.250;2023-06-10T16:19:21;3.75;;;3.00;;
39698;SDS011;25372;50.582;12.250;2023-06-10T16:29:42;6.50;;;2.70;;
39698;SDS011;25372;50.582;12.250;2023-06-10T16:40:04;4.85;;;3.60;;
39698;SDS011;25372;50.582;12.250;2023-06-10T16:50:26;5.72;;;3.83;;
39698;SDS011;25372;50.582;12.250;2023-06-10T17:00:48;4.07;;;3.30;;
39698;SDS011;25372;50.582;12.250;2023-06-10T17:11:09;6.57;;;3.80;;
39698;SDS011;25372;50.582;12.250;2023-06-10T17:21:32;5.53;;;3.65;;
39698;SDS011;25372;50.582;12.250;2023-06-10T17:31:52;5.38;;;2.97;;
39698;SDS011;25372;50.582;12.250;2023-06-10T17:42:14;7.15;;;3.20;;
39698;SDS011;25372;50.582;12.250;2023-06-10T17:52:35;4.75;;;2.92;;
39698;SDS011;25372;50.582;12.250;2023-06-10T18:02:57;8.13;;;3.28;;
39698;SDS011;25372;50.582;12.250;2023-06-10T18:13:18;9.80;;;4.78;;
39698;SDS011;25372;50.582;12.250;2023-06-10T18:23:40;7.40;;;4.55;;
39698;SDS011;25372;50.582;12.250;2023-06-10T18:34:01;11.63;;;6.13;;
39698;SDS011;25372;50.582;12.250;2023-06-10T18:44:24;7.18;;;5.25;;
39698;SDS011;25372;50.582;12.250;2023-06-10T18:54:45;8.68;;;5.25;;
39698;SDS011;25372;50.582;12.250;2023-06-10T19:05:07;14.90;;;7.03;;
39698;SDS011;25372;50.582;12.250;2023-06-10T19:15:29;10.87;;;6.57;;
39698;SDS011;25372;50.582;12.250;2023-06-10T19:25:51;7.47;;;5.65;;
39698;SDS011;25372;50.582;12.250;2023-06-10T19:36:12;5.88;;;4.20;;
39698;SDS011;25372;50.582;12.250;2023-06-10T19:46:34;9.20;;;4.70;;
39698;SDS011;25372;50.582;12.250;2023-06-10T19:56:55;9.65;;;3.95;;
39698;SDS011;25372;50.582;12.250;2023-06-10T20:07:16;9.70;;;6.22;;
39698;SDS011;25372;50.582;12.250;2023-06-10T20:17:37;8.82;;;5.53;;
39698;SDS011;25372;50.582;12.250;2023-06-10T20:28:00;8.60;;;5.10;;
39698;SDS011;25372;50.582;12.250;2023-06-10T20:38:21;8.13;;;5.43;;
39698;SDS011;25372;50.582;12.250;2023-06-10T20:48:43;8.63;;;4.93;;
39698;SDS011;25372;50.582;12.250;2023-06-10T20:59:04;7.97;;;4.93;;
39698;SDS011;25372;50.582;12.250;2023-06-10T21:09:25;7.38;;;4.70;;
39698;SDS011;25372;50.582;12.250;2023-06-10T21:19:46;15.30;;;9.15;;
39698;SDS011;25372;50.582;12.250;2023-06-10T21:30:08;14.25;;;6.10;;
39698;SDS011;25372;50.582;12.250;2023-06-10T21:40:29;12.00;;;5.00;;
39698;SDS011;25372;50.582;12.250;2023-06-10T21:50:51;6.53;;;4.18;;
39698;SDS011;25372;50.582;12.250;2023-06-10T22:01:12;6.90;;;4.38;;
39698;SDS011;25372;50.582;12.250;2023-06-10T22:11:34;7.57;;;3.90;;
39698;SDS011;25372;50.582;12.250;2023-06-10T22:21:55;6.68;;;4.13;;
39698;SDS011;25372;50.582;12.250;2023-06-10T22:32:17;4.72;;;3.83;;
39698;SDS011;25372;50.582;12.250;2023-06-10T22:42:38;4.50;;;3.63;;
39698;SDS011;25372;50.582;12.250;2023-06-10T22:53:00;4.60;;;3.47;;
39698;SDS011;25372;50.582;12.250;2023-06-10T23:03:21;7.70;;;4.40;;
39698;SDS011;25372;50.582;12.250;2023-06-10T23:13:43;9.23;;;4.07;;
39698;SDS011;25372;50.582;12.250;2023-06-10T23:24:04;7.85;;;4.22;;
39698;SDS011;25372;50.582;12.250;2023-06-10T23:34:26;7.93;;;3.30;;
39698;SDS011;25372;50.582;12.250;2023-06-10T23:44:47;8.32;;;3.70;;
39698;SDS011;25372;50.582;12.250;2023-06-10T23:55:09;7.25;;;3.70;;
